createdAt,value
2018-01-15T00:01:02.276Z,22.20
2018-01-15T00:03:29.701Z,22.37
2018-01-15T00:05:57.147Z,22.67
2018-01-15T00:08:24.576Z,21.62
2018-01-15T00:10:52.001Z,22.33
2018-01-15T00:13:19.421Z,22.23
2018-01-15T00:15:46.848Z,22.27
2018-01-15T00:18:14.325Z,24.15
2018-01-15T00:20:41.712Z,21.92
2018-01-15T00:23:09.128Z,22.83
2018-01-15T00:25:36.576Z,22.50
2018-01-15T00:28:04.013Z,22.85
2018-01-15T00:30:31.437Z,22.30
2018-01-15T00:32:59.322Z,22.08
2018-01-15T00:35:26.742Z,21.83
2018-01-15T00:37:54.156Z,22.23
2018-01-15T00:40:21.594Z,24.00
2018-01-15T00:42:49.012Z,24.40
2018-01-15T00:45:16.429Z,23.55
2018-01-15T00:47:43.889Z,23.40
2018-01-15T00:50:11.311Z,23.73
2018-01-15T00:52:38.730Z,23.52
2018-01-15T00:55:06.310Z,23.35
2018-01-15T00:57:33.687Z,25.10
2018-01-15T01:00:01.104Z,25.27
2018-01-15T01:02:28.536Z,23.90
2018-01-15T01:04:55.949Z,25.60
2018-01-15T01:07:23.364Z,24.10
2018-01-15T01:09:50.794Z,24.52
2018-01-15T01:12:18.221Z,25.25
2018-01-15T01:14:45.986Z,23.25
2018-01-15T01:17:13.413Z,25.10
2018-01-15T01:19:40.834Z,23.98
2018-01-15T01:22:08.256Z,23.55
2018-01-15T01:24:35.684Z,24.40
2018-01-15T01:27:03.100Z,23.75
2018-01-15T01:29:30.524Z,22.65
2018-01-15T01:31:58.562Z,23.50
2018-01-15T01:34:26.632Z,23.98
2018-01-15T01:36:54.074Z,22.48
2018-01-15T01:39:21.491Z,23.40
2018-01-15T01:41:48.913Z,23.75
2018-01-15T01:44:16.337Z,23.12
2018-01-15T01:46:43.752Z,22.83
2018-01-15T01:49:11.178Z,24.08
2018-01-15T01:51:38.612Z,24.25
2018-01-15T01:54:06.033Z,23.77
2018-01-15T01:56:33.467Z,24.42
2018-01-15T01:59:01.357Z,23.23
2018-01-15T02:01:28.776Z,23.80
2018-01-15T02:03:56.193Z,23.25
2018-01-15T02:06:23.620Z,23.50
2018-01-15T02:08:51.036Z,23.05
2018-01-15T02:11:18.461Z,24.20
2018-01-15T02:13:46.293Z,23.08
2018-01-15T02:16:13.713Z,22.40
2018-01-15T02:18:41.137Z,22.85
2018-01-15T02:21:08.569Z,24.25
2018-01-15T02:23:35.989Z,23.92
2018-01-15T02:26:03.433Z,24.48
2018-01-15T02:28:30.857Z,22.60
2018-01-15T02:30:58.302Z,22.50
2018-01-15T02:33:25.708Z,24.73
2018-01-15T02:35:53.168Z,23.00
2018-01-15T02:38:20.581Z,23.98
2018-01-15T02:40:48.004Z,24.37
2018-01-15T02:43:15.448Z,22.87
2018-01-15T02:45:42.883Z,23.30
2018-01-15T02:48:10.297Z,23.10
2018-01-15T02:50:37.733Z,22.15
2018-01-15T02:53:05.157Z,22.95
2018-01-15T02:55:32.830Z,23.85
2018-01-15T02:58:00.266Z,23.12
2018-01-15T03:00:27.720Z,23.67
2018-01-15T03:02:55.146Z,24.90
2018-01-15T03:05:22.576Z,23.75
2018-01-15T03:07:50.000Z,23.10
2018-01-15T03:10:17.422Z,24.25
2018-01-15T03:12:44.848Z,25.53
2018-01-15T03:15:12.280Z,24.63
2018-01-15T03:17:39.710Z,25.05
2018-01-15T03:20:07.445Z,24.00
2018-01-15T03:22:34.885Z,24.87
2018-01-15T03:25:02.312Z,23.60
2018-01-15T03:27:29.740Z,23.38
2018-01-15T03:29:57.153Z,23.30
2018-01-15T03:32:24.596Z,23.45
2018-01-15T03:34:52.014Z,23.50
2018-01-15T03:37:19.421Z,21.23
2018-01-15T03:39:46.841Z,22.83
2018-01-15T03:42:14.264Z,22.20
2018-01-15T03:44:41.685Z,21.13
2018-01-15T03:47:09.082Z,23.10
2018-01-15T03:49:36.510Z,22.40
2018-01-15T03:52:03.928Z,23.20
2018-01-15T03:54:31.345Z,24.50
2018-01-15T03:56:59.076Z,25.20
2018-01-15T03:59:26.497Z,24.08
2018-01-15T04:01:53.926Z,24.77
2018-01-15T04:04:21.350Z,22.90
2018-01-15T04:06:48.761Z,22.60
2018-01-15T04:09:16.178Z,22.40
2018-01-15T04:11:43.609Z,22.23
2018-01-15T04:14:11.029Z,22.20
2018-01-15T04:16:38.449Z,23.90
2018-01-15T04:19:05.892Z,22.55
2018-01-15T04:21:33.313Z,22.13
2018-01-15T04:24:00.728Z,22.40
2018-01-15T04:26:28.161Z,24.77
2018-01-15T04:28:55.572Z,22.87
2018-01-15T04:31:22.988Z,24.10
2018-01-15T04:33:50.436Z,22.50
2018-01-15T04:36:17.840Z,23.67
2018-01-15T04:38:45.264Z,22.87
2018-01-15T04:41:13.058Z,25.20
2018-01-15T04:43:40.478Z,26.05
2018-01-15T04:46:07.892Z,24.97
2018-01-15T04:48:35.608Z,25.93
2018-01-15T04:51:03.020Z,24.83
2018-01-15T04:53:30.464Z,24.00
2018-01-15T04:55:57.874Z,25.07
2018-01-15T04:58:25.290Z,24.20
2018-01-15T05:00:52.696Z,24.63
2018-01-15T05:03:20.137Z,23.45
2018-01-15T05:05:47.541Z,24.00
2018-01-15T05:08:14.957Z,25.13
2018-01-15T05:10:42.376Z,23.90
2018-01-15T05:13:09.785Z,25.77
2018-01-15T05:15:37.208Z,23.12
2018-01-15T05:18:04.636Z,22.73
2018-01-15T05:20:32.052Z,24.42
2018-01-15T05:22:59.517Z,21.70
2018-01-15T05:25:26.951Z,22.37
2018-01-15T05:27:54.392Z,23.55
2018-01-15T05:30:21.827Z,23.33
2018-01-15T05:32:49.301Z,22.83
2018-01-15T05:35:16.741Z,22.42
2018-01-15T05:37:44.161Z,23.55
2018-01-15T05:40:11.662Z,25.00
2018-01-15T05:42:39.065Z,24.60
2018-01-15T05:45:06.485Z,25.62
2018-01-15T05:47:33.917Z,23.77
2018-01-15T05:50:01.342Z,22.87
2018-01-15T05:52:28.783Z,25.00
2018-01-15T05:54:56.513Z,25.17
2018-01-15T05:57:23.927Z,24.02
2018-01-15T05:59:51.361Z,23.80
2018-01-15T06:02:18.784Z,23.85
2018-01-15T06:04:46.204Z,24.90
2018-01-15T06:07:13.646Z,22.87
2018-01-15T06:09:41.048Z,25.52
2018-01-15T06:12:08.468Z,25.75
2018-01-15T06:14:35.884Z,25.35
2018-01-15T06:17:07.081Z,24.92
2018-01-15T06:19:34.493Z,25.23
2018-01-15T06:22:01.914Z,27.25
2018-01-15T06:24:29.342Z,24.33
2018-01-15T06:26:56.761Z,27.98
2018-01-15T06:29:24.180Z,24.85
2018-01-15T06:31:51.608Z,26.30
2018-01-15T06:34:19.024Z,24.52
2018-01-15T06:36:46.450Z,24.40
2018-01-15T06:39:13.872Z,22.95
2018-01-15T06:41:41.323Z,22.98
2018-01-15T06:44:08.780Z,21.30
2018-01-15T06:46:36.477Z,22.48
2018-01-15T06:49:03.910Z,21.60
2018-01-15T06:51:31.334Z,23.10
2018-01-15T06:53:58.854Z,22.75
2018-01-15T06:56:26.225Z,22.67
2018-01-15T06:58:53.646Z,23.02
2018-01-15T07:01:21.081Z,21.35
2018-01-15T07:03:48.496Z,21.73
2018-01-15T07:06:15.913Z,21.92
2018-01-15T07:08:43.381Z,21.45
2018-01-15T07:11:10.809Z,21.17
2018-01-15T07:13:38.234Z,21.75
2018-01-15T07:16:05.953Z,24.77
2018-01-15T07:18:33.364Z,23.35
2018-01-15T07:21:00.774Z,21.97
2018-01-15T07:23:28.205Z,22.52
2018-01-15T07:25:55.625Z,22.90
2018-01-15T07:28:23.045Z,23.90
2018-01-15T07:30:50.469Z,22.98
2018-01-15T07:33:17.889Z,24.75
2018-01-15T07:35:45.305Z,23.15
2018-01-15T07:38:12.741Z,24.52
2018-01-15T07:40:40.159Z,23.35
2018-01-15T07:43:07.573Z,24.48
2018-01-15T07:45:35.004Z,22.58
2018-01-15T07:48:02.425Z,23.40
2018-01-15T07:50:29.840Z,24.05
2018-01-15T07:52:57.270Z,23.02
2018-01-15T07:55:24.688Z,24.52
2018-01-15T07:57:52.161Z,23.48
2018-01-15T08:00:19.581Z,24.50
2018-01-15T08:02:46.997Z,26.30
2018-01-15T08:05:14.415Z,25.02
2018-01-15T08:07:41.845Z,26.70
2018-01-15T08:10:09.260Z,25.92
2018-01-15T08:12:36.668Z,24.80
2018-01-15T08:15:04.897Z,23.30
2018-01-15T08:17:32.301Z,24.73
2018-01-15T08:19:59.708Z,22.33
2018-01-15T08:22:27.844Z,23.03
2018-01-15T08:24:55.252Z,22.80
2018-01-15T08:27:22.665Z,23.10
2018-01-15T08:29:50.112Z,22.80
2018-01-15T08:32:17.526Z,21.90
2018-01-15T08:34:44.944Z,24.08
2018-01-15T08:37:12.372Z,21.95
2018-01-15T08:39:39.793Z,21.70
2018-01-15T08:42:07.188Z,21.90
2018-01-15T08:44:34.605Z,22.07
2018-01-15T08:47:02.021Z,20.80
2018-01-15T08:49:29.441Z,21.87
2018-01-15T08:51:56.849Z,21.10
2018-01-15T08:54:24.252Z,21.23
2018-01-15T08:56:51.661Z,20.53
2018-01-15T08:59:19.088Z,21.12
2018-01-15T09:01:46.488Z,21.83
2018-01-15T09:04:13.916Z,22.40
2018-01-15T09:06:41.321Z,20.60
2018-01-15T09:09:08.728Z,21.83
2018-01-15T09:11:36.133Z,23.50
2018-01-15T09:14:03.565Z,21.05
2018-01-15T09:16:30.970Z,20.90
2018-01-15T09:18:58.373Z,22.53
2018-01-15T09:21:25.797Z,20.60
2018-01-15T09:23:53.196Z,20.70
2018-01-15T09:26:20.608Z,20.67
2018-01-15T09:28:48.029Z,22.07
2018-01-15T09:31:15.437Z,20.60
2018-01-15T09:33:42.861Z,21.97
2018-01-15T09:36:10.278Z,21.80
2018-01-15T09:38:37.681Z,20.80
2018-01-15T09:41:05.134Z,21.27
2018-01-15T09:43:32.597Z,21.50
2018-01-15T09:45:59.992Z,22.33
2018-01-15T09:48:27.396Z,20.93
2018-01-15T09:50:55.133Z,22.23
2018-01-15T09:53:22.540Z,21.37
2018-01-15T09:55:49.944Z,20.00
2018-01-15T09:58:17.369Z,21.30
2018-01-15T10:00:44.768Z,22.13
2018-01-15T10:03:12.172Z,21.73
2018-01-15T10:05:39.875Z,19.03
2018-01-15T10:08:07.281Z,20.43
2018-01-15T10:10:34.685Z,19.67
2018-01-15T10:13:02.109Z,19.40
2018-01-15T10:15:29.516Z,19.67
2018-01-15T10:17:56.924Z,22.80
2018-01-15T10:20:24.340Z,20.23
2018-01-15T10:22:51.745Z,19.97
2018-01-15T10:25:19.151Z,20.10
2018-01-15T10:27:46.563Z,19.53
2018-01-15T10:30:13.972Z,20.53
2018-01-15T10:32:41.425Z,20.20
2018-01-15T10:35:08.800Z,19.13
2018-01-15T10:37:36.213Z,20.33
2018-01-15T10:40:03.623Z,19.90
2018-01-15T10:42:31.522Z,20.07
2018-01-15T10:44:58.917Z,20.33
2018-01-15T10:47:26.336Z,19.03
2018-01-15T10:49:53.756Z,20.33
2018-01-15T10:52:21.169Z,19.77
2018-01-15T10:54:48.572Z,20.37
2018-01-15T10:57:15.992Z,21.40
2018-01-15T10:59:43.584Z,20.20
2018-01-15T11:02:11.025Z,19.50
2018-01-15T11:04:38.426Z,20.83
2018-01-15T11:07:05.834Z,21.37
2018-01-15T11:09:33.247Z,19.53
2018-01-15T11:12:01.025Z,19.77
2018-01-15T11:14:28.448Z,21.27
2018-01-15T11:16:55.852Z,19.83
2018-01-15T11:19:23.273Z,20.10
2018-01-15T11:21:50.683Z,19.27
2018-01-15T11:24:18.089Z,20.00
2018-01-15T11:26:45.505Z,18.30
2018-01-15T11:29:13.752Z,20.90
2018-01-15T11:31:41.164Z,18.80
2018-01-15T11:34:08.576Z,20.10
2018-01-15T11:36:35.989Z,20.17
2018-01-15T11:39:03.408Z,19.20
2018-01-15T11:41:31.105Z,20.30
2018-01-15T11:43:58.514Z,20.23
2018-01-15T11:46:25.916Z,20.63
2018-01-15T11:48:53.332Z,20.10
2018-01-15T11:51:20.737Z,18.97
2018-01-15T11:53:48.140Z,19.53
2018-01-15T11:56:15.555Z,20.40
2018-01-15T11:58:42.957Z,19.00
2018-01-15T12:01:10.368Z,21.00
2018-01-15T12:03:37.781Z,21.07
2018-01-15T12:06:05.190Z,20.40
2018-01-15T12:08:32.589Z,19.27
2018-01-15T12:11:00.292Z,20.80
2018-01-15T12:13:27.703Z,18.77
2018-01-15T12:15:55.124Z,21.30
2018-01-15T12:18:22.521Z,20.73
2018-01-15T12:20:49.933Z,19.43
2018-01-15T12:23:17.338Z,20.40
2018-01-15T12:25:45.134Z,18.83
2018-01-15T12:28:12.545Z,20.73
2018-01-15T12:30:39.949Z,20.07
2018-01-15T12:33:07.364Z,19.93
2018-01-15T12:35:34.774Z,18.80
2018-01-15T12:38:02.182Z,17.90
2018-01-15T12:40:29.597Z,20.73
2018-01-15T12:42:57.001Z,19.40
2018-01-15T12:45:24.396Z,19.03
2018-01-15T12:47:51.822Z,19.53
2018-01-15T12:50:19.224Z,19.03
2018-01-15T12:52:46.961Z,20.03
2018-01-15T12:55:14.365Z,19.60
2018-01-15T12:57:41.785Z,17.83
2018-01-15T13:00:09.538Z,18.27
2018-01-15T13:02:36.941Z,18.80
2018-01-15T13:05:04.367Z,18.90
2018-01-15T13:07:43.466Z,18.37
2018-01-15T13:10:10.869Z,17.87
2018-01-15T13:12:38.283Z,19.00
2018-01-15T13:15:05.714Z,16.97
2018-01-15T13:17:33.116Z,17.93
2018-01-15T13:20:00.522Z,18.03
2018-01-15T13:22:27.945Z,19.13
2018-01-15T13:24:56.146Z,18.80
2018-01-15T13:27:23.553Z,16.70
2018-01-15T13:29:51.301Z,17.60
2018-01-15T13:32:18.709Z,16.87
2018-01-15T13:34:46.114Z,17.00
2018-01-15T13:37:13.538Z,16.57
2018-01-15T13:39:40.953Z,16.60
2018-01-15T13:42:08.378Z,15.40
2018-01-15T13:44:35.793Z,16.90
2018-01-15T13:47:03.193Z,16.63
2018-01-15T13:49:30.610Z,16.17
2018-01-15T13:51:58.026Z,15.40
2018-01-15T13:54:25.441Z,15.47
2018-01-15T13:56:52.845Z,14.10
2018-01-15T13:59:20.273Z,15.93
2018-01-15T14:01:47.684Z,14.80
2018-01-15T14:04:15.086Z,15.73
2018-01-15T14:06:42.514Z,15.40
2018-01-15T14:09:09.914Z,15.83
2018-01-15T14:11:37.322Z,16.33
2018-01-15T14:14:04.737Z,16.83
2018-01-15T14:16:32.137Z,17.00
2018-01-15T14:18:59.541Z,16.60
2018-01-15T14:21:26.962Z,16.47
2018-01-15T14:23:54.369Z,15.70
2018-01-15T14:26:21.770Z,15.90
2018-01-15T14:28:49.185Z,16.87
2018-01-15T14:31:16.588Z,15.70
2018-01-15T14:33:43.993Z,15.63
2018-01-15T14:36:11.822Z,15.00
2018-01-15T14:38:39.225Z,15.30
2018-01-15T14:41:06.633Z,15.23
2018-01-15T14:43:34.045Z,14.70
2018-01-15T14:46:01.449Z,14.37
2018-01-15T14:48:28.865Z,15.57
2018-01-15T14:50:56.589Z,16.07
2018-01-15T14:53:23.984Z,16.50
2018-01-15T14:55:51.398Z,15.40
2018-01-15T14:58:18.888Z,14.60
2018-01-15T15:00:46.304Z,14.33
2018-01-15T15:03:13.706Z,15.30
2018-01-15T15:05:41.241Z,15.37
2018-01-15T15:08:08.642Z,15.07
2018-01-15T15:10:36.049Z,15.77
2018-01-15T15:13:03.889Z,15.80
2018-01-15T15:15:31.285Z,15.60
2018-01-15T15:17:58.689Z,15.40
2018-01-15T15:20:26.105Z,15.33
2018-01-15T15:22:53.520Z,15.50
2018-01-15T15:25:20.924Z,16.17
2018-01-15T15:27:48.382Z,15.70
2018-01-15T15:30:15.829Z,16.17
2018-01-15T15:32:43.232Z,16.80
2018-01-15T15:35:10.993Z,16.50
2018-01-15T15:37:38.397Z,16.57
2018-01-15T15:40:05.809Z,16.50
2018-01-15T15:42:33.224Z,17.37
2018-01-15T15:45:00.638Z,16.13
2018-01-15T15:47:28.042Z,15.90
2018-01-15T15:49:55.736Z,15.63
2018-01-15T15:52:23.140Z,15.83
2018-01-15T15:54:50.545Z,15.30
2018-01-15T15:57:17.961Z,15.43
2018-01-15T15:59:45.367Z,15.40
2018-01-15T16:02:12.768Z,14.80
2018-01-15T16:04:40.189Z,16.07
2018-01-15T16:07:07.605Z,16.17
2018-01-15T16:09:35.010Z,14.57
2018-01-15T16:12:02.848Z,14.37
2018-01-15T16:14:30.263Z,15.70
2018-01-15T16:16:57.664Z,14.67
2018-01-15T16:19:25.540Z,15.47
2018-01-15T16:22:04.720Z,14.77
2018-01-15T16:24:32.136Z,16.30
2018-01-15T16:26:59.545Z,16.03
2018-01-15T16:29:26.962Z,14.90
2018-01-15T16:31:54.793Z,14.30
2018-01-15T16:34:22.205Z,15.20
2018-01-15T16:36:49.628Z,13.60
2018-01-15T16:39:17.041Z,13.00
2018-01-15T16:41:44.440Z,14.47
2018-01-15T16:44:11.845Z,14.40
2018-01-15T16:46:39.271Z,14.30
2018-01-15T16:49:06.681Z,12.60
2018-01-15T16:51:34.085Z,13.27
2018-01-15T16:54:01.511Z,13.03
2018-01-15T16:56:28.912Z,13.00
2018-01-15T16:58:56.317Z,11.33
2018-01-15T17:01:24.572Z,13.57
2018-01-15T17:03:51.948Z,12.43
2018-01-15T17:06:19.352Z,13.60
2018-01-15T17:08:46.768Z,13.27
2018-01-15T17:11:14.184Z,13.00
2018-01-15T17:13:41.581Z,13.20
2018-01-15T17:16:09.393Z,12.70
2018-01-15T17:18:36.792Z,13.60
2018-01-15T17:21:04.192Z,11.67
2018-01-15T17:23:32.008Z,12.50
2018-01-15T17:25:59.426Z,13.00
2018-01-15T17:28:26.830Z,13.70
2018-01-15T17:30:54.309Z,12.23
2018-01-15T17:33:21.709Z,11.37
2018-01-15T17:35:49.113Z,12.30
2018-01-15T17:38:16.537Z,12.17
2018-01-15T17:40:43.941Z,11.77
2018-01-15T17:43:11.368Z,12.40
2018-01-15T17:45:38.789Z,12.40
2018-01-15T17:48:06.206Z,11.07
2018-01-15T17:50:33.617Z,12.90
2018-01-15T17:53:01.029Z,12.00
2018-01-15T17:55:28.432Z,12.37
2018-01-15T17:57:55.842Z,12.40
2018-01-15T18:00:23.257Z,12.63
2018-01-15T18:02:50.660Z,12.30
2018-01-15T18:05:18.063Z,12.63
2018-01-15T18:07:45.929Z,12.50
2018-01-15T18:10:13.333Z,12.57
2018-01-15T18:12:41.231Z,12.57
2018-01-15T18:15:08.677Z,12.13
2018-01-15T18:17:36.080Z,12.30
2018-01-15T18:20:03.488Z,11.43
2018-01-15T18:22:30.916Z,12.17
2018-01-15T18:24:58.324Z,12.20
2018-01-15T18:27:25.768Z,10.90
2018-01-15T18:29:53.189Z,11.47
2018-01-15T18:32:20.628Z,10.70
2018-01-15T18:34:48.037Z,11.63
2018-01-15T18:37:15.726Z,11.20
2018-01-15T18:39:43.145Z,10.97
2018-01-15T18:42:10.554Z,10.67
2018-01-15T18:44:38.006Z,10.50
2018-01-15T18:47:05.424Z,10.97
2018-01-15T18:49:32.833Z,10.60
2018-01-15T18:52:00.552Z,11.10
2018-01-15T18:54:28.857Z,10.53
2018-01-15T18:56:56.937Z,10.60
2018-01-15T18:59:25.660Z,10.77
2018-01-15T19:01:53.067Z,10.13
2018-01-15T19:04:20.569Z,10.10
2018-01-15T19:06:48.760Z,9.80
2018-01-15T19:09:16.753Z,10.50
2018-01-15T19:11:44.157Z,10.10
2018-01-15T19:14:11.572Z,10.10
2018-01-15T19:16:39.027Z,10.13
2018-01-15T19:19:06.513Z,10.30
2018-01-15T19:21:39.445Z,9.17
2018-01-15T19:24:06.891Z,9.70
2018-01-15T19:26:34.765Z,9.40
2018-01-15T19:29:02.561Z,9.67
2018-01-15T19:31:30.289Z,9.27
2018-01-15T19:33:58.206Z,8.80
2018-01-15T19:36:27.577Z,9.60
2018-01-15T19:38:56.787Z,8.50
2018-01-15T19:41:41.033Z,9.20
2018-01-15T19:44:26.977Z,9.07
2018-01-15T19:46:59.889Z,9.77
2018-01-15T19:49:32.801Z,9.23
2018-01-15T19:52:05.718Z,9.20
2018-01-15T19:54:38.749Z,9.60
2018-01-15T19:57:11.702Z,8.70
2018-01-15T19:59:45.534Z,9.27
2018-01-15T20:05:24.360Z,8.23
2018-01-15T20:07:57.340Z,9.10
2018-01-15T20:10:38.201Z,8.63
2018-01-15T20:13:05.617Z,8.47
2018-01-15T20:15:33.024Z,8.60
2018-01-15T20:18:00.430Z,8.40
2018-01-15T20:20:27.829Z,8.70
2018-01-15T20:22:55.226Z,8.07
2018-01-15T20:25:22.617Z,8.50
2018-01-15T20:27:50.268Z,9.07
2018-01-15T20:30:17.669Z,9.10
2018-01-15T20:32:45.068Z,9.63
2018-01-15T20:35:12.484Z,9.37
2018-01-15T20:37:39.885Z,10.00
2018-01-15T20:40:07.284Z,10.53
2018-01-15T20:42:34.701Z,10.70
2018-01-15T20:45:02.109Z,9.90
2018-01-15T20:47:29.512Z,9.87
2018-01-15T20:49:56.934Z,10.23
2018-01-15T20:52:24.333Z,10.73
2018-01-15T20:54:51.744Z,10.00
2018-01-15T20:57:19.184Z,10.30
2018-01-15T20:59:46.593Z,9.93
2018-01-15T21:02:14.101Z,10.00
2018-01-15T21:04:41.468Z,9.87
2018-01-15T21:07:08.869Z,9.70
2018-01-15T21:09:37.045Z,9.90
2018-01-15T21:12:04.465Z,10.50
2018-01-15T21:14:31.868Z,10.10
2018-01-15T21:16:59.280Z,10.47
2018-01-15T21:19:27.075Z,10.63
2018-01-15T21:21:54.477Z,10.77
2018-01-15T21:24:21.878Z,10.10
2018-01-15T21:26:49.327Z,10.67
2018-01-15T21:29:16.704Z,10.60
2018-01-15T21:31:44.116Z,10.60
2018-01-15T21:34:11.533Z,10.20
2018-01-15T21:36:38.942Z,10.10
2018-01-15T21:39:06.355Z,10.30
2018-01-15T21:41:34.765Z,10.73
2018-01-15T21:44:02.190Z,11.00
2018-01-15T21:46:30.207Z,10.40
2018-01-15T21:48:57.997Z,10.87
2018-01-15T21:51:25.397Z,10.83
2018-01-15T21:53:52.800Z,11.20
2018-01-15T21:56:20.225Z,11.90
2018-01-15T21:58:47.634Z,11.50
2018-01-15T22:01:15.038Z,10.57
2018-01-15T22:03:42.452Z,10.00
2018-01-15T22:06:09.860Z,10.37
2018-01-15T22:08:38.058Z,10.27
2018-01-15T22:11:05.482Z,10.63
2018-01-15T22:13:32.888Z,10.80
2018-01-15T22:16:00.294Z,10.57
2018-01-15T22:18:27.705Z,10.10
2018-01-15T22:20:55.108Z,10.30
2018-01-15T22:23:22.513Z,10.60
2018-01-15T22:25:49.925Z,10.70
2018-01-15T22:28:17.328Z,11.00
2018-01-15T22:30:44.757Z,11.10
2018-01-15T22:33:12.165Z,11.87
2018-01-15T22:35:39.560Z,11.60
2018-01-15T22:38:06.976Z,11.70
2018-01-15T22:40:34.385Z,11.80
2018-01-15T22:43:01.805Z,12.90
2018-01-15T22:45:29.205Z,12.10
2018-01-15T22:47:57.377Z,11.53
2018-01-15T22:50:24.790Z,11.60
2018-01-15T22:52:52.193Z,11.43
2018-01-15T22:55:19.864Z,11.90
2018-01-15T22:57:47.290Z,12.57
2018-01-15T23:00:14.693Z,12.87
2018-01-15T23:02:42.114Z,12.50
2018-01-15T23:05:09.522Z,12.63
2018-01-15T23:07:36.924Z,12.17
2018-01-15T23:10:04.641Z,12.10
2018-01-15T23:12:32.049Z,12.40
2018-01-15T23:14:59.452Z,12.40
2018-01-15T23:17:26.873Z,13.13
2018-01-15T23:19:54.280Z,13.00
2018-01-15T23:22:21.680Z,13.37
2018-01-15T23:24:49.093Z,12.97
2018-01-15T23:27:16.509Z,12.90
2018-01-15T23:29:43.912Z,12.80
2018-01-15T23:32:11.641Z,13.17
2018-01-15T23:34:39.045Z,12.87
2018-01-15T23:37:06.453Z,13.10
2018-01-15T23:39:34.273Z,13.60
2018-01-15T23:42:01.677Z,13.63
2018-01-15T23:44:29.081Z,13.10
2018-01-15T23:46:56.508Z,14.17
2018-01-15T23:49:23.930Z,14.97
2018-01-15T23:51:51.332Z,14.73
2018-01-15T23:54:30.418Z,14.40
2018-01-15T23:56:57.825Z,14.30
2018-01-15T23:59:25.240Z,13.23
